sensor_id;sensor_type;location;lat;lon;timestamp;pressure;altitude;pressure_sealevel;temperature;humidity
82784;BME280;72520;55.762;37.780;2023-09-30T00:00:09;100321.31;;;13.82;76.08
82784;BME280;72520;55.762;37.780;2023-09-30T00:03:14;100315.13;;;13.82;76.18
82784;BME280;72520;55.762;37.780;2023-09-30T00:06:16;100316.19;;;13.79;76.10
82784;BME280;72520;55.762;37.780;2023-09-30T00:09:18;100316.41;;;13.76;75.85
82784;BME280;72520;55.762;37.780;2023-09-30T00:12:20;100320.91;;;13.75;75.85
82784;BME280;72520;55.762;37.780;2023-09-30T00:15:22;100313.84;;;13.74;75.96
82784;BME280;72520;55.762;37.780;2023-09-30T00:18:26;100318.34;;;13.74;76.13
82784;BME280;72520;55.762;37.780;2023-09-30T00:21:28;100313.09;;;13.72;76.26
82784;BME280;72520;55.762;37.780;2023-09-30T00:24:31;100311.28;;;13.73;75.89
82784;BME280;72520;55.762;37.780;2023-09-30T00:27:35;100316.84;;;13.70;75.98
82784;BME280;72520;55.762;37.780;2023-09-30T00:30:38;100316.00;;;13.69;76.35
82784;BME280;72520;55.762;37.780;2023-09-30T00:33:42;100317.72;;;13.70;75.95
82784;BME280;72520;55.762;37.780;2023-09-30T00:36:44;100313.41;;;13.68;76.48
82784;BME280;72520;55.762;37.780;2023-09-30T00:39:46;100305.50;;;13.66;76.29
82784;BME280;72520;55.762;37.780;2023-09-30T00:42:48;100308.28;;;13.65;76.17
82784;BME280;72520;55.762;37.780;2023-09-30T00:45:52;100306.38;;;13.67;76.54
82784;BME280;72520;55.762;37.780;2023-09-30T00:49:01;100310.84;;;13.66;76.36
82784;BME280;72520;55.762;37.780;2023-09-30T00:52:04;100305.50;;;13.66;76.41
82784;BME280;72520;55.762;37.780;2023-09-30T00:55:07;100299.28;;;13.66;76.08
82784;BME280;72520;55.762;37.780;2023-09-30T00:58:12;100293.94;;;13.66;76.42
82784;BME280;72520;55.762;37.780;2023-09-30T01:01:15;100298.44;;;13.65;76.27
82784;BME280;72520;55.762;37.780;2023-09-30T01:04:21;100289.75;;;13.62;76.01
82784;BME280;72520;55.762;37.780;2023-09-30T01:07:23;100295.13;;;13.62;76.17
82784;BME280;72520;55.762;37.780;2023-09-30T01:10:25;100288.03;;;13.61;75.83
82784;BME280;72520;55.762;37.780;2023-09-30T01:13:32;100289.03;;;13.60;76.13
82784;BME280;72520;55.762;37.780;2023-09-30T01:16:36;100289.88;;;13.60;76.00
82784;BME280;72520;55.762;37.780;2023-09-30T01:19:40;100292.66;;;13.59;76.07
82784;BME280;72520;55.762;37.780;2023-09-30T01:22:44;100296.50;;;13.55;76.05
82784;BME280;72520;55.762;37.780;2023-09-30T01:25:47;100292.97;;;13.54;76.13
82784;BME280;72520;55.762;37.780;2023-09-30T01:28:50;100293.84;;;13.55;76.30
82784;BME280;72520;55.762;37.780;2023-09-30T01:31:52;100288.81;;;13.50;76.04
82784;BME280;72520;55.762;37.780;2023-09-30T01:34:54;100287.63;;;13.54;76.01
82784;BME280;72520;55.762;37.780;2023-09-30T01:37:58;100288.91;;;13.49;76.17
82784;BME280;72520;55.762;37.780;2023-09-30T01:41:00;100282.28;;;13.42;76.10
82784;BME280;72520;55.762;37.780;2023-09-30T01:44:02;100282.81;;;13.34;76.32
82784;BME280;72520;55.762;37.780;2023-09-30T01:47:04;100290.19;;;13.31;76.06
82784;BME280;72520;55.762;37.780;2023-09-30T01:50:07;100281.41;;;13.29;76.52
82784;BME280;72520;55.762;37.780;2023-09-30T01:53:11;100286.22;;;13.23;76.40
82784;BME280;72520;55.762;37.780;2023-09-30T01:56:13;100282.81;;;13.21;76.45
82784;BME280;72520;55.762;37.780;2023-09-30T01:59:15;100283.75;;;13.20;76.59
82784;BME280;72520;55.762;37.780;2023-09-30T02:02:18;100283.88;;;13.19;76.39
82784;BME280;72520;55.762;37.780;2023-09-30T02:05:20;100283.03;;;13.18;76.37
82784;BME280;72520;55.762;37.780;2023-09-30T02:08:24;100282.28;;;13.16;76.11
82784;BME280;72520;55.762;37.780;2023-09-30T02:11:26;100278.97;;;13.13;76.60
82784;BME280;72520;55.762;37.780;2023-09-30T02:14:29;100287.06;;;13.11;76.46
82784;BME280;72520;55.762;37.780;2023-09-30T02:17:31;100281.91;;;13.08;76.10
82784;BME280;72520;55.762;37.780;2023-09-30T02:20:34;100280.38;;;13.04;76.44
82784;BME280;72520;55.762;37.780;2023-09-30T02:23:41;100278.78;;;13.02;76.95
82784;BME280;72520;55.762;37.780;2023-09-30T02:26:48;100277.94;;;13.01;76.66
82784;BME280;72520;55.762;37.780;2023-09-30T02:29:50;100280.69;;;13.00;76.57
82784;BME280;72520;55.762;37.780;2023-09-30T02:32:52;100279.94;;;12.98;77.09
82784;BME280;72520;55.762;37.780;2023-09-30T02:35:57;100275.56;;;12.97;76.88
82784;BME280;72520;55.762;37.780;2023-09-30T02:39:01;100276.53;;;12.96;77.17
82784;BME280;72520;55.762;37.780;2023-09-30T02:42:03;100269.47;;;12.95;76.69
82784;BME280;72520;55.762;37.780;2023-09-30T02:45:06;100265.84;;;12.96;76.85
82784;BME280;72520;55.762;37.780;2023-09-30T02:48:09;100259.66;;;12.95;77.15
82784;BME280;72520;55.762;37.780;2023-09-30T02:51:12;100265.09;;;12.94;77.08
82784;BME280;72520;55.762;37.780;2023-09-30T02:54:16;100264.13;;;12.95;77.06
82784;BME280;72520;55.762;37.780;2023-09-30T02:57:18;100261.34;;;12.96;77.09
82784;BME280;72520;55.762;37.780;2023-09-30T03:00:22;100260.50;;;12.96;77.03
82784;BME280;72520;55.762;37.780;2023-09-30T03:03:27;100261.34;;;12.96;76.76
82784;BME280;72520;55.762;37.780;2023-09-30T03:06:29;100262.41;;;12.94;77.32
82784;BME280;72520;55.762;37.780;2023-09-30T03:09:33;100261.34;;;12.96;77.15
82784;BME280;72520;55.762;37.780;2023-09-30T03:12:35;100256.84;;;12.97;77.19
82784;BME280;72520;55.762;37.780;2023-09-30T03:15:37;100251.72;;;12.94;76.95
82784;BME280;72520;55.762;37.780;2023-09-30T03:18:39;100255.38;;;12.93;77.31
82784;BME280;72520;55.762;37.780;2023-09-30T03:21:46;100250.97;;;12.92;77.48
82784;BME280;72520;55.762;37.780;2023-09-30T03:24:50;100253.88;;;12.89;77.68
82784;BME280;72520;55.762;37.780;2023-09-30T03:27:52;100250.22;;;12.90;77.30
82784;BME280;72520;55.762;37.780;2023-09-30T03:30:54;100241.47;;;12.88;77.45
82784;BME280;72520;55.762;37.780;2023-09-30T03:33:57;100252.88;;;12.90;77.02
82784;BME280;72520;55.762;37.780;2023-09-30T03:36:59;100251.84;;;12.92;77.25
82784;BME280;72520;55.762;37.780;2023-09-30T03:40:06;100256.19;;;12.93;76.94
82784;BME280;72520;55.762;37.780;2023-09-30T03:43:14;100251.72;;;12.94;77.32
82784;BME280;72520;55.762;37.780;2023-09-30T03:46:16;100250.78;;;12.95;77.27
82784;BME280;72520;55.762;37.780;2023-09-30T03:49:19;100243.63;;;12.95;76.97
82784;BME280;72520;55.762;37.780;2023-09-30T03:52:21;100254.31;;;12.95;77.09
82784;BME280;72520;55.762;37.780;2023-09-30T03:55:27;100249.81;;;12.96;77.18
82784;BME280;72520;55.762;37.780;2023-09-30T03:58:30;100250.78;;;12.95;76.91
82784;BME280;72520;55.762;37.780;2023-09-30T04:01:33;100242.75;;;12.95;76.96
82784;BME280;72520;55.762;37.780;2023-09-30T04:04:36;100248.97;;;12.95;77.52
82784;BME280;72520;55.762;37.780;2023-09-30T04:07:38;100247.03;;;12.97;77.30
82784;BME280;72520;55.762;37.780;2023-09-30T04:10:41;100243.41;;;12.98;77.47
82784;BME280;72520;55.762;37.780;2023-09-30T04:13:44;100250.34;;;13.01;77.09
82784;BME280;72520;55.762;37.780;2023-09-30T04:16:47;100248.53;;;13.01;77.31
82784;BME280;72520;55.762;37.780;2023-09-30T04:19:49;100242.13;;;13.04;77.08
82784;BME280;72520;55.762;37.780;2023-09-30T04:22:52;100244.69;;;13.05;77.55
82784;BME280;72520;55.762;37.780;2023-09-30T04:25:59;100244.47;;;13.08;77.24
82784;BME280;72520;55.762;37.780;2023-09-30T04:29:01;100244.31;;;13.11;77.24
82784;BME280;72520;55.762;37.780;2023-09-30T04:32:11;100250.28;;;13.15;77.05
82784;BME280;72520;55.762;37.780;2023-09-30T04:35:13;100248.13;;;13.20;77.11
82784;BME280;72520;55.762;37.780;2023-09-30T04:38:15;100248.69;;;13.25;77.00
82784;BME280;72520;55.762;37.780;2023-09-30T04:41:19;100248.25;;;13.31;77.03
82784;BME280;72520;55.762;37.780;2023-09-30T04:44:21;100247.00;;;13.37;76.70
82784;BME280;72520;55.762;37.780;2023-09-30T04:47:24;100255.53;;;13.42;76.75
82784;BME280;72520;55.762;37.780;2023-09-30T04:50:27;100253.63;;;13.44;76.84
82784;BME280;72520;55.762;37.780;2023-09-30T04:53:31;100254.06;;;13.50;77.03
82784;BME280;72520;55.762;37.780;2023-09-30T04:56:35;100259.81;;;13.57;76.67
82784;BME280;72520;55.762;37.780;2023-09-30T04:59:39;100247.59;;;13.65;76.81
82784;BME280;72520;55.762;37.780;2023-09-30T05:02:44;100254.22;;;13.72;77.08
82784;BME280;72520;55.762;37.780;2023-09-30T05:05:46;100251.97;;;13.79;76.94
82784;BME280;72520;55.762;37.780;2023-09-30T05:08:48;100255.91;;;13.86;76.85
82784;BME280;72520;55.762;37.780;2023-09-30T05:11:52;100250.97;;;13.93;77.02
82784;BME280;72520;55.762;37.780;2023-09-30T05:14:54;100252.88;;;14.03;77.30
82784;BME280;72520;55.762;37.780;2023-09-30T05:17:56;100250.63;;;14.10;77.11
82784;BME280;72520;55.762;37.780;2023-09-30T05:20:58;100247.38;;;14.17;76.42
82784;BME280;72520;55.762;37.780;2023-09-30T05:24:00;100242.84;;;14.31;75.53
82784;BME280;72520;55.762;37.780;2023-09-30T05:27:07;100242.47;;;14.48;75.52
82784;BME280;72520;55.762;37.780;2023-09-30T05:30:10;100235.78;;;14.77;73.58
82784;BME280;72520;55.762;37.780;2023-09-30T05:33:12;100228.63;;;14.89;73.17
82784;BME280;72520;55.762;37.780;2023-09-30T05:36:15;100234.75;;;15.02;72.85
82784;BME280;72520;55.762;37.780;2023-09-30T05:39:17;100230.16;;;15.15;72.61
82784;BME280;72520;55.762;37.780;2023-09-30T05:42:22;100229.44;;;15.35;71.08
82784;BME280;72520;55.762;37.780;2023-09-30T05:45:24;100227.69;;;15.58;69.89
82784;BME280;72520;55.762;37.780;2023-09-30T05:48:27;100224.00;;;15.92;69.22
82784;BME280;72520;55.762;37.780;2023-09-30T05:51:30;100223.00;;;16.15;67.82
82784;BME280;72520;55.762;37.780;2023-09-30T05:54:33;100214.75;;;16.39;67.12
82784;BME280;72520;55.762;37.780;2023-09-30T05:57:37;100209.84;;;16.55;65.68
82784;BME280;72520;55.762;37.780;2023-09-30T06:00:39;100214.28;;;16.77;66.67
82784;BME280;72520;55.762;37.780;2023-09-30T06:03:42;100227.38;;;16.91;65.88
82784;BME280;72520;55.762;37.780;2023-09-30T06:06:47;100216.28;;;17.05;65.72
82784;BME280;72520;55.762;37.780;2023-09-30T06:09:49;100211.50;;;17.29;64.33
82784;BME280;72520;55.762;37.780;2023-09-30T06:12:53;100215.09;;;17.60;63.45
82784;BME280;72520;55.762;37.780;2023-09-30T06:15:57;100216.97;;;17.69;61.84
82784;BME280;72520;55.762;37.780;2023-09-30T06:19:00;100205.81;;;17.84;62.62
82784;BME280;72520;55.762;37.780;2023-09-30T06:22:04;100207.06;;;18.10;60.99
82784;BME280;72520;55.762;37.780;2023-09-30T06:25:07;100201.09;;;18.16;61.72
82784;BME280;72520;55.762;37.780;2023-09-30T06:28:11;100197.56;;;18.15;60.76
82784;BME280;72520;55.762;37.780;2023-09-30T06:31:14;100198.81;;;18.21;61.04
82784;BME280;72520;55.762;37.780;2023-09-30T06:34:17;100186.22;;;18.41;59.10
82784;BME280;72520;55.762;37.780;2023-09-30T06:37:19;100184.66;;;18.48;59.55
82784;BME280;72520;55.762;37.780;2023-09-30T06:40:21;100190.53;;;18.62;59.56
82784;BME280;72520;55.762;37.780;2023-09-30T06:43:25;100179.44;;;18.65;59.41
82784;BME280;72520;55.762;37.780;2023-09-30T06:46:30;100184.69;;;18.76;58.75
82784;BME280;72520;55.762;37.780;2023-09-30T06:49:35;100179.28;;;18.86;57.98
82784;BME280;72520;55.762;37.780;2023-09-30T06:52:39;100179.56;;;18.93;58.48
82784;BME280;72520;55.762;37.780;2023-09-30T06:55:42;100179.59;;;18.83;59.88
82784;BME280;72520;55.762;37.780;2023-09-30T06:58:46;100180.72;;;18.90;59.46
82784;BME280;72520;55.762;37.780;2023-09-30T07:01:48;100180.41;;;19.03;58.05
82784;BME280;72520;55.762;37.780;2023-09-30T07:04:51;100174.28;;;19.10;57.88
82784;BME280;72520;55.762;37.780;2023-09-30T07:07:55;100178.41;;;19.14;57.82
82784;BME280;72520;55.762;37.780;2023-09-30T07:10:57;100175.84;;;19.13;57.44
82784;BME280;72520;55.762;37.780;2023-09-30T07:14:04;100171.25;;;19.23;56.60
82784;BME280;72520;55.762;37.780;2023-09-30T07:17:06;100182.06;;;19.42;56.94
82784;BME280;72520;55.762;37.780;2023-09-30T07:20:09;100175.34;;;19.46;56.18
82784;BME280;72520;55.762;37.780;2023-09-30T07:23:11;100169.19;;;19.54;56.06
82784;BME280;72520;55.762;37.780;2023-09-30T07:26:14;100163.34;;;19.58;55.84
82784;BME280;72520;55.762;37.780;2023-09-30T07:29:17;100154.34;;;19.67;56.34
82784;BME280;72520;55.762;37.780;2023-09-30T07:32:19;100149.19;;;19.74;55.07
82784;BME280;72520;55.762;37.780;2023-09-30T07:35:24;100164.53;;;19.83;55.90
82784;BME280;72520;55.762;37.780;2023-09-30T07:38:32;100151.69;;;19.85;55.42
82784;BME280;72520;55.762;37.780;2023-09-30T07:41:34;100155.81;;;19.89;54.88
82784;BME280;72520;55.762;37.780;2023-09-30T07:44:38;100149.03;;;20.03;54.99
82784;BME280;72520;55.762;37.780;2023-09-30T07:47:40;100145.81;;;20.17;53.92
82784;BME280;72520;55.762;37.780;2023-09-30T07:50:43;100150.00;;;20.29;54.22
82784;BME280;72520;55.762;37.780;2023-09-30T07:53:45;100146.78;;;20.43;54.10
82784;BME280;72520;55.762;37.780;2023-09-30T07:56:47;100149.63;;;20.59;52.46
82784;BME280;72520;55.762;37.780;2023-09-30T07:59:51;100148.84;;;20.67;51.65
82784;BME280;72520;55.762;37.780;2023-09-30T08:02:53;100148.75;;;20.76;52.31
82784;BME280;72520;55.762;37.780;2023-09-30T08:05:56;100140.53;;;20.86;52.34
82784;BME280;72520;55.762;37.780;2023-09-30T08:08:58;100137.69;;;20.88;51.60
82784;BME280;72520;55.762;37.780;2023-09-30T08:12:00;100130.63;;;20.95;52.09
82784;BME280;72520;55.762;37.780;2023-09-30T08:15:06;100144.97;;;21.13;50.19
82784;BME280;72520;55.762;37.780;2023-09-30T08:18:09;100140.00;;;21.26;50.11
82784;BME280;72520;55.762;37.780;2023-09-30T08:21:11;100137.50;;;21.33;50.57
82784;BME280;72520;55.762;37.780;2023-09-30T08:24:16;100127.56;;;21.41;49.32
82784;BME280;72520;55.762;37.780;2023-09-30T08:27:19;100124.03;;;21.49;49.38
82784;BME280;72520;55.762;37.780;2023-09-30T08:30:22;100129.47;;;21.49;49.38
82784;BME280;72520;55.762;37.780;2023-09-30T08:33:24;100132.97;;;21.41;49.32
82784;BME280;72520;55.762;37.780;2023-09-30T08:36:28;100128.75;;;21.47;50.29
82784;BME280;72520;55.762;37.780;2023-09-30T08:39:30;100125.84;;;21.40;48.81
82784;BME280;72520;55.762;37.780;2023-09-30T08:42:33;100119.28;;;21.43;50.14
82784;BME280;72520;55.762;37.780;2023-09-30T08:45:39;100120.63;;;21.47;48.81
82784;BME280;72520;55.762;37.780;2023-09-30T08:48:46;100123.06;;;21.58;47.61
82784;BME280;72520;55.762;37.780;2023-09-30T08:51:49;100118.53;;;21.66;47.86
82784;BME280;72520;55.762;37.780;2023-09-30T08:54:53;100117.53;;;21.75;47.67
82784;BME280;72520;55.762;37.780;2023-09-30T08:57:56;100105.38;;;21.79;48.58
82784;BME280;72520;55.762;37.780;2023-09-30T09:00:59;100096.34;;;21.71;47.18
82784;BME280;72520;55.762;37.780;2023-09-30T09:04:02;100098.56;;;21.75;47.38
82784;BME280;72520;55.762;37.780;2023-09-30T09:07:06;100095.38;;;21.80;47.63
82784;BME280;72520;55.762;37.780;2023-09-30T09:10:09;100098.41;;;21.77;47.03
82784;BME280;72520;55.762;37.780;2023-09-30T09:13:13;100104.31;;;21.72;46.88
82784;BME280;72520;55.762;37.780;2023-09-30T09:16:17;100096.91;;;21.82;46.94
82784;BME280;72520;55.762;37.780;2023-09-30T09:19:20;100079.63;;;21.83;48.24
82784;BME280;72520;55.762;37.780;2023-09-30T09:22:23;100091.53;;;21.91;47.73
82784;BME280;72520;55.762;37.780;2023-09-30T09:25:25;100079.50;;;21.93;47.68
82784;BME280;72520;55.762;37.780;2023-09-30T09:28:34;100078.16;;;21.97;47.56
82784;BME280;72520;55.762;37.780;2023-09-30T09:31:38;100081.72;;;21.98;47.44
82784;BME280;72520;55.762;37.780;2023-09-30T09:34:41;100081.22;;;21.94;48.36
82784;BME280;72520;55.762;37.780;2023-09-30T09:37:54;100077.00;;;22.08;46.16
82784;BME280;72520;55.762;37.780;2023-09-30T09:40:59;100071.38;;;22.01;47.47
82784;BME280;72520;55.762;37.780;2023-09-30T09:44:01;100067.34;;;22.13;45.49
82784;BME280;72520;55.762;37.780;2023-09-30T09:47:09;100074.78;;;22.11;45.53
82784;BME280;72520;55.762;37.780;2023-09-30T09:50:23;100069.88;;;22.07;45.71
82784;BME280;72520;55.762;37.780;2023-09-30T09:53:29;100067.00;;;22.00;45.21
82784;BME280;72520;55.762;37.780;2023-09-30T09:56:33;100065.47;;;22.06;46.09
82784;BME280;72520;55.762;37.780;2023-09-30T09:59:36;100062.09;;;22.04;46.31
82784;BME280;72520;55.762;37.780;2023-09-30T10:02:41;100056.81;;;22.02;46.33
82784;BME280;72520;55.762;37.780;2023-09-30T10:05:43;100052.75;;;22.06;46.81
82784;BME280;72520;55.762;37.780;2023-09-30T10:08:49;100054.09;;;22.02;45.67
82784;BME280;72520;55.762;37.780;2023-09-30T10:11:57;100047.34;;;22.06;46.37
82784;BME280;72520;55.762;37.780;2023-09-30T10:19:07;100051.41;;;22.18;45.74
82784;BME280;72520;55.762;37.780;2023-09-30T10:22:24;100054.28;;;22.17;44.07
82784;BME280;72520;55.762;37.780;2023-09-30T10:25:34;100048.34;;;22.29;44.96
82784;BME280;72520;55.762;37.780;2023-09-30T10:28:38;100056.16;;;22.32;43.20
82784;BME280;72520;55.762;37.780;2023-09-30T10:31:49;100044.81;;;22.45;44.60
82784;BME280;72520;55.762;37.780;2023-09-30T10:34:55;100043.28;;;22.51;43.33
82784;BME280;72520;55.762;37.780;2023-09-30T10:41:58;100046.16;;;22.57;43.54
82784;BME280;72520;55.762;37.780;2023-09-30T10:45:00;100042.09;;;22.61;43.67
82784;BME280;72520;55.762;37.780;2023-09-30T10:48:38;100041.56;;;22.58;42.62
82784;BME280;72520;55.762;37.780;2023-09-30T10:51:43;100027.34;;;22.72;43.11
82784;BME280;72520;55.762;37.780;2023-09-30T10:54:48;100027.69;;;22.69;42.33
82784;BME280;72520;55.762;37.780;2023-09-30T10:57:51;100031.72;;;22.65;42.20
82784;BME280;72520;55.762;37.780;2023-09-30T11:00:54;100022.22;;;22.61;42.44
82784;BME280;72520;55.762;37.780;2023-09-30T11:03:59;100017.13;;;22.66;41.70
82784;BME280;72520;55.762;37.780;2023-09-30T11:07:05;100011.22;;;22.62;42.39
82784;BME280;72520;55.762;37.780;2023-09-30T11:10:11;100012.03;;;22.63;42.93
82784;BME280;72520;55.762;37.780;2023-09-30T11:13:15;100013.06;;;22.70;43.26
82784;BME280;72520;55.762;37.780;2023-09-30T11:16:17;100003.25;;;22.69;42.18
82784;BME280;72520;55.762;37.780;2023-09-30T11:19:20;99998.50;;;22.71;41.38
82784;BME280;72520;55.762;37.780;2023-09-30T11:22:24;100002.91;;;22.72;42.16
82784;BME280;72520;55.762;37.780;2023-09-30T11:25:27;100004.44;;;22.74;42.99
82784;BME280;72520;55.762;37.780;2023-09-30T11:28:36;99986.63;;;22.72;42.22
82784;BME280;72520;55.762;37.780;2023-09-30T11:31:40;99991.34;;;22.70;42.81
82784;BME280;72520;55.762;37.780;2023-09-30T11:34:44;99985.22;;;22.76;41.93
82784;BME280;72520;55.762;37.780;2023-09-30T11:37:48;99985.56;;;22.89;42.31
82784;BME280;72520;55.762;37.780;2023-09-30T11:41:00;99980.06;;;23.05;41.77
82784;BME280;72520;55.762;37.780;2023-09-30T11:44:06;99976.34;;;22.98;41.75
82784;BME280;72520;55.762;37.780;2023-09-30T11:47:13;99979.91;;;22.99;42.12
82784;BME280;72520;55.762;37.780;2023-09-30T11:50:16;99969.56;;;22.94;41.13
82784;BME280;72520;55.762;37.780;2023-09-30T11:53:20;99965.88;;;22.87;42.54
82784;BME280;72520;55.762;37.780;2023-09-30T11:56:22;99965.06;;;22.78;41.88
82784;BME280;72520;55.762;37.780;2023-09-30T11:59:30;99965.56;;;22.82;41.95
82784;BME280;72520;55.762;37.780;2023-09-30T12:02:35;99961.63;;;22.85;41.72
82784;BME280;72520;55.762;37.780;2023-09-30T12:05:41;99958.06;;;22.84;41.74
82784;BME280;72520;55.762;37.780;2023-09-30T12:08:47;99960.44;;;22.87;41.17
82784;BME280;72520;55.762;37.780;2023-09-30T12:11:52;99952.63;;;22.84;41.56
82784;BME280;72520;55.762;37.780;2023-09-30T12:14:55;99951.97;;;22.82;41.93
82784;BME280;72520;55.762;37.780;2023-09-30T12:17:57;99937.72;;;22.80;42.14
82784;BME280;72520;55.762;37.780;2023-09-30T12:20:59;99941.13;;;22.82;41.88
82784;BME280;72520;55.762;37.780;2023-09-30T12:24:03;99940.13;;;22.75;42.32
82784;BME280;72520;55.762;37.780;2023-09-30T12:27:05;99931.28;;;22.73;42.06
82784;BME280;72520;55.762;37.780;2023-09-30T12:30:08;99935.91;;;22.72;42.17
82784;BME280;72520;55.762;37.780;2023-09-30T12:33:13;99926.59;;;22.59;42.65
82784;BME280;72520;55.762;37.780;2023-09-30T12:36:15;99924.53;;;22.53;42.92
82784;BME280;72520;55.762;37.780;2023-09-30T12:39:18;99936.25;;;22.61;42.74
82784;BME280;72520;55.762;37.780;2023-09-30T12:42:24;99936.91;;;22.63;41.99
82784;BME280;72520;55.762;37.780;2023-09-30T12:45:26;99933.53;;;22.61;42.04
82784;BME280;72520;55.762;37.780;2023-09-30T12:48:28;99933.88;;;22.66;42.32
82784;BME280;72520;55.762;37.780;2023-09-30T12:51:31;99932.66;;;22.61;42.18
82784;BME280;72520;55.762;37.780;2023-09-30T12:54:35;99924.69;;;22.59;42.00
82784;BME280;72520;55.762;37.780;2023-09-30T12:57:37;99921.81;;;22.61;42.28
82784;BME280;72520;55.762;37.780;2023-09-30T13:00:39;99916.38;;;22.61;42.44
82784;BME280;72520;55.762;37.780;2023-09-30T13:03:42;99926.09;;;22.55;43.55
82784;BME280;72520;55.762;37.780;2023-09-30T13:06:44;99920.00;;;22.45;43.87
82784;BME280;72520;55.762;37.780;2023-09-30T13:09:48;99918.81;;;22.40;43.94
82784;BME280;72520;55.762;37.780;2023-09-30T13:12:50;99911.19;;;22.43;43.38
82784;BME280;72520;55.762;37.780;2023-09-30T13:15:54;99905.94;;;22.42;43.20
82784;BME280;72520;55.762;37.780;2023-09-30T13:18:56;99912.38;;;22.41;43.67
82784;BME280;72520;55.762;37.780;2023-09-30T13:21:58;99901.19;;;22.36;42.94
82784;BME280;72520;55.762;37.780;2023-09-30T13:25:02;99899.47;;;22.43;42.96
82784;BME280;72520;55.762;37.780;2023-09-30T13:28:06;99894.38;;;22.48;43.06
82784;BME280;72520;55.762;37.780;2023-09-30T13:31:08;99888.78;;;22.49;42.75
82784;BME280;72520;55.762;37.780;2023-09-30T13:34:10;99887.78;;;22.42;42.93
82784;BME280;72520;55.762;37.780;2023-09-30T13:37:13;99885.94;;;22.35;43.09
82784;BME280;72520;55.762;37.780;2023-09-30T13:40:17;99880.03;;;22.31;43.27
82784;BME280;72520;55.762;37.780;2023-09-30T13:43:20;99886.47;;;22.30;43.88
82784;BME280;72520;55.762;37.780;2023-09-30T13:46:25;99883.59;;;22.23;44.65
82784;BME280;72520;55.762;37.780;2023-09-30T13:49:29;99884.94;;;22.19;43.69
82784;BME280;72520;55.762;37.780;2023-09-30T13:52:31;99882.94;;;22.13;44.29
82784;BME280;72520;55.762;37.780;2023-09-30T13:55:39;99874.31;;;22.02;44.54
82784;BME280;72520;55.762;37.780;2023-09-30T13:58:41;99871.09;;;22.06;44.80
82784;BME280;72520;55.762;37.780;2023-09-30T14:01:43;99872.25;;;22.12;44.32
82784;BME280;72520;55.762;37.780;2023-09-30T14:04:45;99870.91;;;22.16;44.07
82784;BME280;72520;55.762;37.780;2023-09-30T14:07:47;99873.59;;;22.16;44.23
82784;BME280;72520;55.762;37.780;2023-09-30T14:10:51;99872.75;;;22.15;44.76
82784;BME280;72520;55.762;37.780;2023-09-30T14:13:54;99861.59;;;22.10;44.65
82784;BME280;72520;55.762;37.780;2023-09-30T14:16:56;99867.31;;;22.15;44.22
82784;BME280;72520;55.762;37.780;2023-09-30T14:19:58;99865.66;;;22.14;44.00
82784;BME280;72520;55.762;37.780;2023-09-30T14:23:00;99864.31;;;22.10;44.19
82784;BME280;72520;55.762;37.780;2023-09-30T14:26:04;99860.09;;;22.00;44.26
82784;BME280;72520;55.762;37.780;2023-09-30T14:29:17;99866.66;;;21.89;45.35
82784;BME280;72520;55.762;37.780;2023-09-30T14:32:19;99861.78;;;21.76;45.44
82784;BME280;72520;55.762;37.780;2023-09-30T14:35:21;99860.06;;;21.67;45.29
82784;BME280;72520;55.762;37.780;2023-09-30T14:38:23;99858.91;;;21.70;45.44
82784;BME280;72520;55.762;37.780;2023-09-30T14:41:27;99858.72;;;21.71;45.16
82784;BME280;72520;55.762;37.780;2023-09-30T14:44:29;99865.19;;;21.70;44.96
82784;BME280;72520;55.762;37.780;2023-09-30T14:47:32;99857.34;;;21.67;44.93
82784;BME280;72520;55.762;37.780;2023-09-30T14:50:34;99859.25;;;21.67;45.01
82784;BME280;72520;55.762;37.780;2023-09-30T14:53:37;99865.69;;;21.66;44.74
82784;BME280;72520;55.762;37.780;2023-09-30T14:56:42;99850.59;;;21.63;45.02
82784;BME280;72520;55.762;37.780;2023-09-30T14:59:44;99855.53;;;21.60;45.16
82784;BME280;72520;55.762;37.780;2023-09-30T15:02:46;99859.25;;;21.43;45.84
82784;BME280;72520;55.762;37.780;2023-09-30T15:05:48;99853.13;;;21.33;45.80
82784;BME280;72520;55.762;37.780;2023-09-30T15:08:50;99846.53;;;21.35;45.69
82784;BME280;72520;55.762;37.780;2023-09-30T15:12:03;99853.78;;;21.26;45.55
82784;BME280;72520;55.762;37.780;2023-09-30T15:15:07;99852.56;;;21.13;47.11
82784;BME280;72520;55.762;37.780;2023-09-30T15:18:09;99852.38;;;20.98;46.14
82784;BME280;72520;55.762;37.780;2023-09-30T15:21:11;99845.88;;;20.83;48.19
82784;BME280;72520;55.762;37.780;2023-09-30T15:24:14;99847.41;;;20.77;46.98
82784;BME280;72520;55.762;37.780;2023-09-30T15:27:18;99840.13;;;20.78;46.98
82784;BME280;72520;55.762;37.780;2023-09-30T15:30:22;99839.25;;;20.69;48.41
82784;BME280;72520;55.762;37.780;2023-09-30T15:33:27;99845.50;;;20.70;48.86
82784;BME280;72520;55.762;37.780;2023-09-30T15:36:30;99845.84;;;20.67;47.68
82784;BME280;72520;55.762;37.780;2023-09-30T15:39:37;99845.84;;;20.67;47.80
82784;BME280;72520;55.762;37.780;2023-09-30T15:42:41;99838.72;;;20.66;48.26
82784;BME280;72520;55.762;37.780;2023-09-30T15:45:43;99834.13;;;20.58;47.59
82784;BME280;72520;55.762;37.780;2023-09-30T15:48:45;99840.50;;;20.41;50.12
82784;BME280;72520;55.762;37.780;2023-09-30T15:51:47;99843.75;;;20.53;48.25
82784;BME280;72520;55.762;37.780;2023-09-30T15:54:52;99835.81;;;20.51;48.61
82784;BME280;72520;55.762;37.780;2023-09-30T15:57:55;99833.06;;;20.43;49.18